createdAt,value
2019-01-15T00:01:06.660Z,68.40
2019-01-15T00:03:36.135Z,68.74
2019-01-15T00:06:05.669Z,68.93
2019-01-15T00:08:35.113Z,69.24
2019-01-15T00:11:04.596Z,69.36
2019-01-15T00:13:34.036Z,69.53
2019-01-15T00:16:03.600Z,69.18
2019-01-15T00:18:33.036Z,69.87
2019-01-15T00:21:02.847Z,69.42
2019-01-15T00:23:32.277Z,68.84
2019-01-15T00:26:01.709Z,69.03
2019-01-15T00:28:31.173Z,68.48
2019-01-15T00:31:00.602Z,68.10
2019-01-15T00:33:30.059Z,68.60
2019-01-15T00:35:59.503Z,69.31
2019-01-15T00:38:28.971Z,69.30
2019-01-15T00:40:58.408Z,69.45
2019-01-15T00:43:27.856Z,69.16
2019-01-15T00:45:57.322Z,69.21
2019-01-15T00:48:26.785Z,69.24
2019-01-15T00:50:56.249Z,69.12
2019-01-15T00:53:25.691Z,69.16
2019-01-15T00:55:55.197Z,68.75
2019-01-15T00:58:24.641Z,69.24
2019-01-15T01:00:54.106Z,69.26
2019-01-15T01:03:23.545Z,69.44
2019-01-15T01:05:53.037Z,69.87
2019-01-15T01:08:22.467Z,70.04
2019-01-15T01:10:51.936Z,71.05
2019-01-15T01:13:21.368Z,70.47
2019-01-15T01:15:50.810Z,70.59
2019-01-15T01:18:20.263Z,70.89
2019-01-15T01:20:49.790Z,71.32
2019-01-15T01:23:19.255Z,70.50
2019-01-15T01:25:48.687Z,71.01
2019-01-15T01:28:18.163Z,70.19
2019-01-15T01:30:47.593Z,70.24
2019-01-15T01:33:17.036Z,70.30
2019-01-15T01:35:46.492Z,70.23
2019-01-15T01:38:15.940Z,69.57
2019-01-15T01:40:45.408Z,69.60
2019-01-15T01:43:14.840Z,69.26
2019-01-15T01:45:44.304Z,69.52
2019-01-15T01:48:13.769Z,69.51
2019-01-15T01:50:43.266Z,69.53
2019-01-15T01:53:12.712Z,69.17
2019-01-15T01:55:42.158Z,68.74
2019-01-15T01:58:11.642Z,68.60
2019-01-15T02:00:41.078Z,68.33
2019-01-15T02:03:10.538Z,68.26
2019-01-15T02:05:39.975Z,67.77
2019-01-15T02:08:09.460Z,67.98
2019-01-15T02:10:38.889Z,68.31
2019-01-15T02:13:08.316Z,68.35
2019-01-15T02:15:37.772Z,69.11
2019-01-15T02:18:07.205Z,68.79
2019-01-15T02:20:36.669Z,69.56
2019-01-15T02:23:06.208Z,69.22
2019-01-15T02:25:35.672Z,69.11
2019-01-15T02:28:05.122Z,69.19
2019-01-15T02:30:34.575Z,68.98
2019-01-15T02:33:04.144Z,69.70
2019-01-15T02:35:33.584Z,69.75
2019-01-15T02:38:03.044Z,70.08
2019-01-15T02:40:32.483Z,69.72
2019-01-15T02:43:01.941Z,69.60
2019-01-15T02:45:31.423Z,69.62
2019-01-15T02:48:00.939Z,69.25
2019-01-15T02:50:31.697Z,69.25
2019-01-15T02:53:01.138Z,69.77
2019-01-15T02:55:30.594Z,69.55
2019-01-15T02:58:00.035Z,69.90
2019-01-15T03:00:29.491Z,69.61
2019-01-15T03:02:58.928Z,69.55
2019-01-15T03:05:28.379Z,69.68
2019-01-15T03:07:57.840Z,69.50
2019-01-15T03:10:27.285Z,69.32
2019-01-15T03:12:57.087Z,69.53
2019-01-15T03:15:26.569Z,69.11
2019-01-15T03:17:56.037Z,69.48
2019-01-15T03:20:25.524Z,69.84
2019-01-15T03:22:54.944Z,70.29
2019-01-15T03:25:24.394Z,70.47
2019-01-15T03:27:53.828Z,69.91
2019-01-15T03:30:24.836Z,69.53
2019-01-15T03:32:54.319Z,70.29
2019-01-15T03:35:23.792Z,70.72
2019-01-15T03:37:53.532Z,70.13
2019-01-15T03:40:25.077Z,70.19
2019-01-15T03:43:02.969Z,70.88
2019-01-15T03:45:25.917Z,70.96
2019-01-15T03:47:55.381Z,70.65
2019-01-15T03:50:24.842Z,71.05
2019-01-15T03:52:54.403Z,71.11
2019-01-15T03:55:23.845Z,70.94
2019-01-15T03:57:53.293Z,70.90
2019-01-15T04:00:26.565Z,70.88
2019-01-15T04:02:57.022Z,70.76
2019-01-15T04:05:26.481Z,71.00
2019-01-15T04:07:57.356Z,70.99
2019-01-15T04:10:27.285Z,71.09
2019-01-15T04:12:56.719Z,71.36
2019-01-15T04:15:26.212Z,71.44
2019-01-15T04:17:55.783Z,71.13
2019-01-15T04:20:25.234Z,71.13
2019-01-15T04:22:54.674Z,71.48
2019-01-15T04:25:24.369Z,71.24
2019-01-15T04:27:53.797Z,71.16
2019-01-15T04:30:24.074Z,71.32
2019-01-15T04:32:53.612Z,71.28
2019-01-15T04:35:23.094Z,71.17
2019-01-15T04:37:52.544Z,70.95
2019-01-15T04:40:22.762Z,72.07
2019-01-15T04:42:52.404Z,71.34
2019-01-15T04:45:23.346Z,71.37
2019-01-15T04:47:52.825Z,71.42
2019-01-15T04:50:22.398Z,71.47
2019-01-15T04:52:55.515Z,71.15
2019-01-15T04:55:25.020Z,71.32
2019-01-15T04:57:54.440Z,71.51
2019-01-15T05:00:24.130Z,71.56
2019-01-15T05:02:54.614Z,71.71
2019-01-15T05:05:24.064Z,71.12
2019-01-15T05:07:53.561Z,71.25
2019-01-15T05:10:22.993Z,71.14
2019-01-15T05:12:52.542Z,71.14
2019-01-15T05:15:22.006Z,70.87
2019-01-15T05:17:51.428Z,71.43
2019-01-15T05:20:20.906Z,71.53
2019-01-15T05:22:50.349Z,71.76
2019-01-15T05:25:20.749Z,71.65
2019-01-15T05:27:50.189Z,71.50
2019-01-15T05:30:27.401Z,71.65
2019-01-15T05:32:56.874Z,71.65
2019-01-15T05:35:26.318Z,71.42
2019-01-15T05:37:56.095Z,71.50
2019-01-15T05:40:25.536Z,72.33
2019-01-15T05:42:55.015Z,72.01
2019-01-15T05:45:35.892Z,72.25
2019-01-15T05:48:11.502Z,71.61
2019-01-15T05:50:59.904Z,71.99
2019-01-15T05:53:29.367Z,72.38
2019-01-15T05:55:58.812Z,72.41
2019-01-15T05:58:28.304Z,71.97
2019-01-15T06:00:57.764Z,71.92
2019-01-15T06:03:27.228Z,72.17
2019-01-15T06:05:56.659Z,71.94
2019-01-15T06:08:26.192Z,72.06
2019-01-15T06:10:55.701Z,72.30
2019-01-15T06:13:25.246Z,72.59
2019-01-15T06:15:54.710Z,72.44
2019-01-15T06:18:24.160Z,72.28
2019-01-15T06:20:53.748Z,71.98
2019-01-15T06:23:23.235Z,72.46
2019-01-15T06:25:52.775Z,72.43
2019-01-15T06:28:22.323Z,72.20
2019-01-15T06:30:51.943Z,71.85
2019-01-15T06:33:21.405Z,71.91
2019-01-15T06:35:50.838Z,71.76
2019-01-15T06:38:20.351Z,72.04
2019-01-15T06:40:49.842Z,71.97
2019-01-15T06:43:19.288Z,72.38
2019-01-15T06:45:48.750Z,72.95
2019-01-15T06:48:18.245Z,72.86
2019-01-15T06:50:47.738Z,72.41
2019-01-15T06:53:17.179Z,72.39
2019-01-15T06:55:46.645Z,72.28
2019-01-15T06:58:16.089Z,71.56
2019-01-15T07:00:45.549Z,71.96
2019-01-15T07:03:15.040Z,71.46
2019-01-15T07:05:44.474Z,71.83
2019-01-15T07:08:13.939Z,72.09
2019-01-15T07:10:43.381Z,72.51
2019-01-15T07:13:12.936Z,71.85
2019-01-15T07:15:42.378Z,71.71
2019-01-15T07:18:11.834Z,71.36
2019-01-15T07:20:41.469Z,71.28
2019-01-15T07:23:10.905Z,70.67
2019-01-15T07:25:40.333Z,70.71
2019-01-15T07:28:09.831Z,70.89
2019-01-15T07:30:51.113Z,70.45
2019-01-15T07:33:23.404Z,70.47
2019-01-15T07:35:52.872Z,70.59
2019-01-15T07:38:22.331Z,70.28
2019-01-15T07:40:51.875Z,70.46
2019-01-15T07:43:21.359Z,70.88
2019-01-15T07:45:50.889Z,71.00
2019-01-15T07:48:20.386Z,71.22
2019-01-15T07:50:49.954Z,70.79
2019-01-15T07:53:19.398Z,69.99
2019-01-15T07:55:48.878Z,70.35
2019-01-15T07:58:18.317Z,69.91
2019-01-15T08:00:47.774Z,70.02
2019-01-15T08:03:17.349Z,69.94
2019-01-15T08:05:46.830Z,70.02
2019-01-15T08:08:16.274Z,70.48
2019-01-15T08:10:45.750Z,70.35
2019-01-15T08:13:15.480Z,70.41
2019-01-15T08:15:44.922Z,70.74
2019-01-15T08:18:14.400Z,70.99
2019-01-15T08:20:43.846Z,71.28
2019-01-15T08:23:14.005Z,70.85
2019-01-15T08:25:43.448Z,70.59
2019-01-15T08:28:12.897Z,70.79
2019-01-15T08:30:42.355Z,70.45
2019-01-15T08:33:11.791Z,69.86
2019-01-15T08:35:41.375Z,70.06
2019-01-15T08:38:10.804Z,70.10
2019-01-15T08:40:40.265Z,69.93
2019-01-15T08:43:09.736Z,69.18
2019-01-15T08:45:39.206Z,69.58
2019-01-15T08:48:11.608Z,69.88
2019-01-15T08:50:41.145Z,70.59
2019-01-15T08:53:11.619Z,69.55
2019-01-15T08:55:41.059Z,70.01
2019-01-15T08:58:10.504Z,69.21
2019-01-15T09:00:39.989Z,69.53
2019-01-15T09:03:09.430Z,70.38
2019-01-15T09:05:38.844Z,69.43
2019-01-15T09:08:08.284Z,70.38
2019-01-15T09:10:37.829Z,70.55
2019-01-15T09:13:07.285Z,70.84
2019-01-15T09:15:36.735Z,70.90
2019-01-15T09:18:06.111Z,71.39
2019-01-15T09:20:35.786Z,70.97
2019-01-15T09:23:05.366Z,70.42
2019-01-15T09:25:34.790Z,71.08
2019-01-15T09:28:04.287Z,71.32
2019-01-15T09:30:33.652Z,70.84
2019-01-15T09:33:03.001Z,71.05
2019-01-15T09:35:32.568Z,71.50
2019-01-15T09:38:02.903Z,71.38
2019-01-15T09:40:32.322Z,71.95
2019-01-15T09:43:01.713Z,71.72
2019-01-15T09:45:31.122Z,71.64
2019-01-15T09:48:11.182Z,71.56
2019-01-15T09:50:40.656Z,71.58
2019-01-15T09:53:10.293Z,71.71
2019-01-15T09:55:39.833Z,71.28
2019-01-15T09:58:09.325Z,71.12
2019-01-15T10:00:38.672Z,71.38
2019-01-15T10:03:08.051Z,71.82
2019-01-15T10:05:37.496Z,71.65
2019-01-15T10:08:06.958Z,71.63
2019-01-15T10:10:36.342Z,71.84
2019-01-15T10:13:05.703Z,70.66
2019-01-15T10:15:35.460Z,70.50
2019-01-15T10:18:04.999Z,70.39
2019-01-15T10:20:34.384Z,71.18
2019-01-15T10:23:03.933Z,71.48
2019-01-15T10:25:33.904Z,71.35
2019-01-15T10:28:03.277Z,70.82
2019-01-15T10:31:09.576Z,70.64
2019-01-15T10:33:46.723Z,71.19
2019-01-15T10:36:14.460Z,71.55
2019-01-15T10:38:43.933Z,71.33
2019-01-15T10:41:13.331Z,71.00
2019-01-15T10:43:42.674Z,71.20
2019-01-15T10:46:12.033Z,71.48
2019-01-15T10:48:41.494Z,71.40
2019-01-15T10:51:10.888Z,71.49
2019-01-15T10:53:40.274Z,72.02
2019-01-15T10:56:09.617Z,71.87
2019-01-15T10:58:39.007Z,71.44
2019-01-15T11:01:08.447Z,71.50
2019-01-15T11:03:37.876Z,71.10
2019-01-15T11:06:07.241Z,70.98
2019-01-15T11:08:36.626Z,71.30
2019-01-15T11:11:06.047Z,70.83
2019-01-15T11:13:37.467Z,70.41
2019-01-15T11:16:07.008Z,70.15
2019-01-15T11:18:36.362Z,70.10
2019-01-15T11:21:06.016Z,69.96
2019-01-15T11:23:35.393Z,68.80
2019-01-15T11:26:04.914Z,69.29
2019-01-15T11:28:34.659Z,69.03
2019-01-15T11:31:04.028Z,68.84
2019-01-15T11:33:33.418Z,68.63
2019-01-15T11:36:02.775Z,68.60
2019-01-15T11:38:32.164Z,68.51
2019-01-15T11:41:01.524Z,68.57
2019-01-15T11:43:30.924Z,68.66
2019-01-15T11:46:00.381Z,68.51
2019-01-15T11:48:29.849Z,67.85
2019-01-15T11:50:59.228Z,68.95
2019-01-15T11:53:28.600Z,69.36
2019-01-15T11:55:58.050Z,68.51
2019-01-15T11:58:27.481Z,68.60
2019-01-15T12:01:02.269Z,68.06
2019-01-15T12:03:49.284Z,67.75
2019-01-15T12:06:46.778Z,67.30
2019-01-15T12:09:43.083Z,66.73
2019-01-15T12:12:31.499Z,65.96
2019-01-15T12:15:34.771Z,65.96
2019-01-15T12:18:22.235Z,65.00
2019-01-15T12:21:05.422Z,64.61
2019-01-15T12:23:57.342Z,65.67
2019-01-15T12:27:00.602Z,65.54
2019-01-15T12:29:47.452Z,65.97
2019-01-15T12:32:38.726Z,66.00
2019-01-15T12:35:26.056Z,66.44
2019-01-15T12:38:29.398Z,67.11
2019-01-15T12:41:16.584Z,66.81
2019-01-15T12:44:03.356Z,67.51
2019-01-15T12:47:00.916Z,67.32
2019-01-15T12:49:55.087Z,67.49
2019-01-15T12:52:41.777Z,67.75
2019-01-15T12:55:22.578Z,68.43
2019-01-15T12:58:16.659Z,68.00
2019-01-15T13:01:07.831Z,67.35
2019-01-15T13:04:05.034Z,67.74
2019-01-15T13:06:46.837Z,68.14
2019-01-15T13:09:33.798Z,67.58
2019-01-15T13:12:21.283Z,68.03
2019-01-15T13:15:15.400Z,67.97
2019-01-15T13:18:09.970Z,67.51
2019-01-15T13:20:58.256Z,67.55
2019-01-15T13:23:58.458Z,67.57
2019-01-15T13:26:46.761Z,67.42
2019-01-15T13:29:41.347Z,67.26
2019-01-15T13:32:29.674Z,67.19
2019-01-15T13:35:16.769Z,67.28
2019-01-15T13:38:10.370Z,67.47
2019-01-15T13:41:07.867Z,67.83
2019-01-15T13:44:05.002Z,68.14
2019-01-15T13:46:51.897Z,68.13
2019-01-15T13:49:40.179Z,68.04
2019-01-15T13:52:40.815Z,68.36
2019-01-15T13:55:31.607Z,68.81
2019-01-15T13:58:16.595Z,68.99
2019-01-15T14:00:53.353Z,69.24
2019-01-15T14:03:44.543Z,68.99
2019-01-15T14:06:31.638Z,69.26
2019-01-15T14:09:14.124Z,69.56
2019-01-15T14:12:02.117Z,69.22
2019-01-15T14:14:50.578Z,69.13
2019-01-15T14:17:41.666Z,69.02
2019-01-15T14:20:28.720Z,69.41
2019-01-15T14:23:20.099Z,69.05
2019-01-15T14:26:01.048Z,69.03
2019-01-15T14:28:47.998Z,68.71
2019-01-15T14:31:36.667Z,68.93
2019-01-15T14:34:23.774Z,68.76
2019-01-15T14:37:12.999Z,69.01
2019-01-15T14:40:16.274Z,68.40
2019-01-15T14:43:03.025Z,68.77
2019-01-15T14:45:56.305Z,69.11
2019-01-15T14:48:38.280Z,68.67
2019-01-15T14:51:25.015Z,68.84
2019-01-15T14:54:23.137Z,68.13
2019-01-15T14:57:11.873Z,68.43
2019-01-15T15:00:18.521Z,68.45
2019-01-15T15:03:06.008Z,68.49
2019-01-15T15:05:53.223Z,68.51
2019-01-15T15:08:40.285Z,68.94
2019-01-15T15:11:40.471Z,68.18
2019-01-15T15:14:20.483Z,68.68
2019-01-15T15:17:06.677Z,68.32
2019-01-15T15:19:50.054Z,68.29
2019-01-15T15:22:41.196Z,68.37
2019-01-15T15:25:20.643Z,68.21
2019-01-15T15:28:03.133Z,68.39
2019-01-15T15:30:53.110Z,68.46
2019-01-15T15:33:39.754Z,68.29
2019-01-15T15:36:31.037Z,68.53
2019-01-15T15:39:17.833Z,68.03
2019-01-15T15:42:18.053Z,68.38
2019-01-15T15:45:05.174Z,68.15
2019-01-15T15:48:02.029Z,68.00
2019-01-15T15:50:56.577Z,67.57
2019-01-15T15:53:39.845Z,67.48
2019-01-15T15:56:26.847Z,67.60
2019-01-15T15:59:15.195Z,67.28
2019-01-15T16:02:01.909Z,67.13
2019-01-15T16:04:50.204Z,66.94
2019-01-15T16:07:32.337Z,66.97
2019-01-15T16:10:29.633Z,67.36
2019-01-15T16:13:21.046Z,67.23
2019-01-15T16:16:18.734Z,66.97
2019-01-15T16:19:17.406Z,67.04
2019-01-15T16:21:58.975Z,67.52
2019-01-15T16:25:02.521Z,67.92
2019-01-15T16:28:01.867Z,67.18
2019-01-15T16:30:48.903Z,67.82
2019-01-15T16:33:35.660Z,68.08
2019-01-15T16:36:25.369Z,68.43
2019-01-15T16:39:16.766Z,68.62
2019-01-15T16:42:05.101Z,68.90
2019-01-15T16:44:54.055Z,69.30
2019-01-15T16:47:41.651Z,69.51
2019-01-15T16:50:39.089Z,69.95
2019-01-15T16:53:30.832Z,70.28
2019-01-15T16:56:28.543Z,70.07
2019-01-15T16:59:17.197Z,70.18
2019-01-15T17:02:17.399Z,69.66
2019-01-15T17:05:08.561Z,70.00
2019-01-15T17:08:02.626Z,70.30
2019-01-15T17:10:42.500Z,70.13
2019-01-15T17:13:30.184Z,70.15
2019-01-15T17:16:16.902Z,70.31
2019-01-15T17:18:58.023Z,70.35
2019-01-15T17:21:51.850Z,70.90
2019-01-15T17:24:30.327Z,70.82
2019-01-15T17:27:21.567Z,70.94
2019-01-15T17:30:21.166Z,71.00
2019-01-15T17:33:07.962Z,70.76
2019-01-15T17:35:53.452Z,70.93
2019-01-15T17:38:56.750Z,70.75
2019-01-15T17:41:42.811Z,70.96
2019-01-15T17:44:29.613Z,70.56
2019-01-15T17:47:21.000Z,70.41
2019-01-15T17:50:15.145Z,70.66
2019-01-15T17:53:06.529Z,71.19
2019-01-15T17:55:53.551Z,70.80
2019-01-15T17:58:31.909Z,71.03
2019-01-15T18:01:26.041Z,71.35
2019-01-15T18:04:10.475Z,71.43
2019-01-15T18:06:48.006Z,71.11
2019-01-15T18:09:30.986Z,71.77
2019-01-15T18:12:19.312Z,71.77
2019-01-15T18:15:22.613Z,71.28
2019-01-15T18:18:09.392Z,71.61
2019-01-15T18:21:03.626Z,71.36
2019-01-15T18:24:03.023Z,71.68
2019-01-15T18:26:51.311Z,71.65
2019-01-15T18:29:37.637Z,71.29
2019-01-15T18:32:19.720Z,71.18
2019-01-15T18:34:55.906Z,71.63
2019-01-15T18:37:50.659Z,71.47
2019-01-15T18:40:40.653Z,71.13
2019-01-15T18:43:40.849Z,71.17
2019-01-15T18:46:29.173Z,71.43
2019-01-15T18:49:23.356Z,71.30
2019-01-15T18:52:15.081Z,70.98
2019-01-15T18:55:02.790Z,71.04
2019-01-15T18:57:57.254Z,70.89
2019-01-15T19:01:00.762Z,71.29
2019-01-15T19:04:04.056Z,71.45
2019-01-15T19:07:10.539Z,71.38
2019-01-15T19:10:04.699Z,71.71
2019-01-15T19:12:45.137Z,72.46
2019-01-15T19:15:32.126Z,72.16
2019-01-15T19:18:29.507Z,72.86
2019-01-15T19:21:20.595Z,72.43
2019-01-15T19:24:08.903Z,72.53
2019-01-15T19:27:06.082Z,72.73
2019-01-15T19:29:52.721Z,72.59
2019-01-15T19:32:41.055Z,72.27
2019-01-15T19:35:27.793Z,72.06
2019-01-15T19:38:18.900Z,71.95
2019-01-15T19:41:05.862Z,72.87
2019-01-15T19:43:52.753Z,73.07
2019-01-15T19:46:53.298Z,72.79
2019-01-15T19:49:37.976Z,72.98
2019-01-15T19:52:25.031Z,73.18
2019-01-15T19:55:12.514Z,72.76
2019-01-15T19:57:56.022Z,73.03
2019-01-15T20:00:42.129Z,73.22
2019-01-15T20:03:36.358Z,72.97
2019-01-15T20:06:30.807Z,73.41
2019-01-15T20:09:11.628Z,73.15
2019-01-15T20:12:06.015Z,72.70
2019-01-15T20:14:52.760Z,73.17
2019-01-15T20:17:41.090Z,72.80
2019-01-15T20:20:35.891Z,73.05
2019-01-15T20:23:19.231Z,73.55
2019-01-15T20:26:13.612Z,73.16
2019-01-15T20:29:00.339Z,73.51
2019-01-15T20:31:47.491Z,73.62
2019-01-15T20:34:35.807Z,74.12
2019-01-15T20:37:22.908Z,73.74
2019-01-15T20:40:14.088Z,74.11
2019-01-15T20:43:02.375Z,73.91
2019-01-15T20:45:49.485Z,73.76
2019-01-15T20:48:29.331Z,74.03
2019-01-15T20:51:17.663Z,74.08
2019-01-15T20:54:11.899Z,74.53
2019-01-15T20:57:00.265Z,74.30
2019-01-15T20:59:47.340Z,74.54
2019-01-15T21:02:26.744Z,75.05
2019-01-15T21:05:20.993Z,74.98
2019-01-15T21:08:08.061Z,74.78
2019-01-15T21:10:54.979Z,75.10
2019-01-15T21:13:42.678Z,74.57
2019-01-15T21:16:40.075Z,75.30
2019-01-15T21:19:33.430Z,75.32
2019-01-15T21:22:24.777Z,75.74
2019-01-15T21:25:04.143Z,75.66
2019-01-15T21:27:58.558Z,75.54
2019-01-15T21:30:56.085Z,75.55
2019-01-15T21:33:44.674Z,75.11
2019-01-15T21:36:35.863Z,75.18
2019-01-15T21:39:23.966Z,75.47
2019-01-15T21:42:11.256Z,75.51
2019-01-15T21:45:02.632Z,75.03
2019-01-15T21:47:47.880Z,75.42
2019-01-15T21:50:40.987Z,75.20
2019-01-15T21:53:47.587Z,74.49
2019-01-15T21:56:41.499Z,74.78
2019-01-15T21:59:19.111Z,74.60
2019-01-15T22:02:13.477Z,74.88
2019-01-15T22:05:00.428Z,74.56
2019-01-15T22:07:51.744Z,74.88
2019-01-15T22:10:39.576Z,74.72
2019-01-15T22:13:31.214Z,74.34
2019-01-15T22:16:18.320Z,74.50
2019-01-15T22:19:18.966Z,74.83
2019-01-15T22:22:03.888Z,74.62
2019-01-15T22:25:07.278Z,74.54
2019-01-15T22:27:55.735Z,74.76
2019-01-15T22:30:44.240Z,74.61
2019-01-15T22:33:27.382Z,74.70
2019-01-15T22:36:14.201Z,74.01
2019-01-15T22:39:05.840Z,73.97
2019-01-15T22:41:57.667Z,74.41
2019-01-15T22:45:03.877Z,74.30
2019-01-15T22:47:55.054Z,74.19
2019-01-15T22:50:40.557Z,74.12
2019-01-15T22:53:23.717Z,73.57
2019-01-15T22:56:30.169Z,74.19
2019-01-15T22:59:13.318Z,73.95
2019-01-15T23:01:59.816Z,73.93
2019-01-15T23:04:41.993Z,74.05
2019-01-15T23:07:49.401Z,74.26
2019-01-15T23:10:50.342Z,74.15
2019-01-15T23:13:44.770Z,74.57
2019-01-15T23:16:45.151Z,74.60
2019-01-15T23:19:31.947Z,74.55
2019-01-15T23:22:10.213Z,74.92
2019-01-15T23:24:56.921Z,75.07
2019-01-15T23:27:45.328Z,75.08
2019-01-15T23:30:34.105Z,75.34
2019-01-15T23:33:32.077Z,75.39
2019-01-15T23:36:14.429Z,75.08
2019-01-15T23:39:01.155Z,75.67
2019-01-15T23:41:52.507Z,75.17
2019-01-15T23:44:31.522Z,75.25
2019-01-15T23:47:18.198Z,75.09
2019-01-15T23:50:15.434Z,75.25
2019-01-15T23:53:12.778Z,75.26
2019-01-15T23:56:12.487Z,74.99
2019-01-15T23:59:00.801Z,75.27
